Time,TemperatureF,DewpointF,PressureIn,WindDirection,WindDirectionDegrees,WindSpeedMPH,WindSpeedGustMPH,Humidity,HourlyPrecipIn,Conditions,Clouds,dailyrainin,SolarRadiationWatts/m^2,SoftwareType,DateUTC
2015-02-27 00:22:00,56.0,41.0,-100.00,East,81,5.0,29.0,57,0.00,,,0.00,0.000000,,2015-02-27 08:22:00,
2015-02-27 00:32:00,56.0,41.0,-100.00,East,81,5.0,29.0,57,0.00,,,0.00,0.000000,,2015-02-27 08:32:00,
2015-02-27 00:42:00,56.0,41.0,-100.00,East,81,5.0,29.0,57,0.00,,,0.00,0.000000,,2015-02-27 08:42:00,
2015-02-27 00:52:00,56.0,41.0,-100.00,East,81,5.0,29.0,57,0.00,,,0.00,0.000000,,2015-02-27 08:52:00,
2015-02-27 01:22:00,55.0,43.0,-100.00,NW,325,11.0,21.0,63,0.00,,,0.00,0.000000,,2015-02-27 09:22:00,
2015-02-27 01:32:00,55.0,43.0,-100.00,NW,325,11.0,21.0,63,0.00,,,0.00,0.000000,,2015-02-27 09:32:00,
2015-02-27 01:43:00,55.0,43.0,-100.00,NW,325,11.0,21.0,63,0.00,,,0.00,0.000000,,2015-02-27 09:43:00,
2015-02-27 01:52:00,55.0,43.0,-100.00,NW,325,11.0,21.0,63,0.00,,,0.00,0.000000,,2015-02-27 09:52:00,
2015-02-27 02:23:00,54.0,43.0,-100.00,ENE,73,9.0,22.0,67,0.00,,,0.00,0.000000,,2015-02-27 10:23:00,
2015-02-27 02:33:00,54.0,43.0,-100.00,ENE,73,9.0,22.0,67,0.00,,,0.00,0.000000,,2015-02-27 10:33:00,
2015-02-27 02:43:00,54.0,43.0,-100.00,ENE,73,9.0,22.0,67,0.00,,,0.00,0.000000,,2015-02-27 10:43:00,
2015-02-27 02:52:00,54.0,43.0,-100.00,ENE,73,9.0,22.0,67,0.00,,,0.00,0.000000,,2015-02-27 10:52:00,
2015-02-27 03:23:00,53.0,45.0,-100.00,NNE,17,8.0,21.0,75,0.00,,,0.00,0.000000,,2015-02-27 11:23:00,
2015-02-27 03:33:00,53.0,45.0,-100.00,NNE,17,8.0,21.0,75,0.00,,,0.00,0.000000,,2015-02-27 11:33:00,
2015-02-27 03:42:00,53.0,45.0,-100.00,NNE,17,8.0,21.0,75,0.00,,,0.00,0.000000,,2015-02-27 11:42:00,
2015-02-27 03:53:00,53.0,45.0,-100.00,NNE,17,8.0,21.0,75,0.00,,,0.00,0.000000,,2015-02-27 11:53:00,
2015-02-27 04:22:00,50.0,49.0,-100.00,WNW,297,12.0,21.0,96,0.00,,,0.00,0.000000,,2015-02-27 12:22:00,
2015-02-27 04:33:00,50.0,49.0,-100.00,WNW,297,12.0,21.0,96,0.00,,,0.00,0.000000,,2015-02-27 12:33:00,
2015-02-27 04:43:00,50.0,49.0,-100.00,WNW,297,12.0,21.0,96,0.00,,,0.00,0.000000,,2015-02-27 12:43:00,
2015-02-27 04:52:00,50.0,49.0,-100.00,WNW,297,12.0,21.0,96,0.00,,,0.00,0.000000,,2015-02-27 12:52:00,
2015-02-27 05:23:00,49.0,49.0,-100.00,NE,34,6.0,18.0,100,0.00,,,0.00,0.000000,,2015-02-27 13:23:00,
2015-02-27 05:33:00,49.0,49.0,-100.00,NE,34,6.0,18.0,100,0.00,,,0.00,0.000000,,2015-02-27 13:33:00,
2015-02-27 05:42:00,49.0,49.0,-100.00,NE,34,6.0,18.0,100,0.00,,,0.00,0.000000,,2015-02-27 13:42:00,
2015-02-27 05:52:00,49.0,49.0,-100.00,NE,34,6.0,18.0,100,0.00,,,0.00,0.000000,,2015-02-27 13:52:00,
2015-02-27 06:22:00,51.0,51.0,-100.00,SSW,192,12.0,20.0,100,0.00,,,0.00,0.000000,,2015-02-27 14:22:00,
2015-02-27 06:32:00,51.0,51.0,-100.00,SSW,192,12.0,20.0,100,0.00,,,0.00,0.000000,,2015-02-27 14:32:00,
2015-02-27 06:42:00,51.0,51.0,-100.00,SSW,192,12.0,20.0,100,0.00,,,0.00,0.000000,,2015-02-27 14:42:00,
2015-02-27 06:53:00,51.0,51.0,-100.00,SSW,192,12.0,20.0,100,0.00,,,0.00,0.000000,,2015-02-27 14:53:00,
2015-02-27 07:22:00,51.0,51.0,-100.00,NE,53,11.0,17.0,100,0.00,,,0.00,0.000000,,2015-02-27 15:22:00,
2015-02-27 07:32:00,51.0,51.0,-100.00,NE,53,11.0,17.0,100,0.00,,,0.00,0.000000,,2015-02-27 15:32:00,
2015-02-27 07:43:00,51.0,51.0,-100.00,NE,53,11.0,17.0,100,0.00,,,0.00,0.000000,,2015-02-27 15:43:00,
2015-02-27 07:53:00,51.0,51.0,-100.00,NE,53,11.0,17.0,100,0.00,,,0.00,0.000000,,2015-02-27 15:53:00,
2015-02-27 08:24:00,52.0,52.0,-100.00,NE,47,10.0,15.0,100,0.00,,,0.00,8.000000,,2015-02-27 16:24:00,
2015-02-27 08:33:00,52.0,52.0,-100.00,NE,47,10.0,15.0,100,0.00,,,0.00,8.000000,,2015-02-27 16:33:00,
2015-02-27 08:43:00,52.0,52.0,-100.00,NE,47,10.0,15.0,100,0.00,,,0.00,8.000000,,2015-02-27 16:43:00,
2015-02-27 08:53:00,52.0,52.0,-100.00,NE,47,10.0,15.0,100,0.00,,,0.00,8.000000,,2015-02-27 16:53:00,
2015-02-27 09:22:00,55.0,53.0,-100.00,NE,34,7.0,14.0,93,0.00,,,0.00,88.000000,,2015-02-27 17:22:00,
2015-02-27 09:33:00,55.0,53.0,-100.00,NE,34,7.0,14.0,93,0.00,,,0.00,88.000000,,2015-02-27 17:33:00,
2015-02-27 09:43:00,55.0,53.0,-100.00,NE,34,7.0,14.0,93,0.00,,,0.00,88.000000,,2015-02-27 17:43:00,
2015-02-27 09:52:00,55.0,53.0,-100.00,NE,34,7.0,14.0,93,0.00,,,0.00,88.000000,,2015-02-27 17:52:00,
2015-02-27 10:22:00,56.0,52.0,-100.00,NE,40,8.0,16.0,87,0.00,,,0.00,173.000000,,2015-02-27 18:22:00,
2015-02-27 10:33:00,56.0,52.0,-100.00,NE,40,8.0,16.0,87,0.00,,,0.00,173.000000,,2015-02-27 18:33:00,
2015-02-27 10:43:00,56.0,52.0,-100.00,NE,40,8.0,16.0,87,0.00,,,0.00,173.000000,,2015-02-27 18:43:00,
2015-02-27 10:53:00,56.0,52.0,-100.00,NE,40,8.0,16.0,87,0.00,,,0.00,173.000000,,2015-02-27 18:53:00,
2015-02-27 11:23:00,57.0,51.0,-100.00,NE,49,7.0,20.0,79,0.00,,,0.00,223.000000,,2015-02-27 19:23:00,
2015-02-27 11:33:00,57.0,51.0,-100.00,NE,49,7.0,20.0,79,0.00,,,0.00,223.000000,,2015-02-27 19:33:00,
2015-02-27 11:43:00,57.0,51.0,-100.00,NE,49,7.0,20.0,79,0.00,,,0.00,223.000000,,2015-02-27 19:43:00,
2015-02-27 11:53:00,57.0,51.0,-100.00,NE,49,7.0,20.0,79,0.00,,,0.00,223.000000,,2015-02-27 19:53:00,
2015-02-27 12:22:00,60.0,50.0,-100.00,SW,234,8.0,15.0,70,0.00,,,0.00,358.000000,,2015-02-27 20:22:00,
2015-02-27 12:32:00,60.0,50.0,-100.00,SW,234,8.0,15.0,70,0.00,,,0.00,358.000000,,2015-02-27 20:32:00,
2015-02-27 12:42:00,60.0,50.0,-100.00,SW,234,8.0,15.0,70,0.00,,,0.00,358.000000,,2015-02-27 20:42:00,
2015-02-27 12:52:00,60.0,50.0,-100.00,SW,234,8.0,15.0,70,0.00,,,0.00,358.000000,,2015-02-27 20:52:00,
2015-02-27 13:43:00,59.0,49.0,-100.00,NW,306,7.0,19.0,69,0.00,,,0.00,359.000000,,2015-02-27 21:43:00,
2015-02-27 13:53:00,59.0,49.0,-100.00,NW,306,7.0,19.0,69,0.00,,,0.00,359.000000,,2015-02-27 21:53:00,
2015-02-27 14:24:00,63.0,51.0,-100.00,WSW,254,8.0,21.0,65,0.00,,,0.00,626.000000,,2015-02-27 22:24:00,
2015-02-27 14:33:00,63.0,51.0,-100.00,WSW,254,8.0,21.0,65,0.00,,,0.00,626.000000,,2015-02-27 22:33:00,
2015-02-27 14:43:00,63.0,51.0,-100.00,WSW,254,8.0,21.0,65,0.00,,,0.00,626.000000,,2015-02-27 22:43:00,
2015-02-27 14:53:00,63.0,51.0,-100.00,WSW,254,8.0,21.0,65,0.00,,,0.00,626.000000,,2015-02-27 22:53:00,
2015-02-27 15:23:00,55.0,52.0,-100.00,NNE,21,8.0,28.0,89,0.00,,,0.00,402.000000,,2015-02-27 23:23:00,
2015-02-27 15:33:00,55.0,52.0,-100.00,NNE,21,8.0,28.0,89,0.00,,,0.00,402.000000,,2015-02-27 23:33:00,
2015-02-27 15:43:00,55.0,52.0,-100.00,NNE,21,8.0,28.0,89,0.00,,,0.00,402.000000,,2015-02-27 23:43:00,
2015-02-27 15:52:00,55.0,52.0,-100.00,NNE,21,8.0,28.0,89,0.00,,,0.00,402.000000,,2015-02-27 23:52:00,
2015-02-27 16:22:00,56.0,52.0,-100.00,NW,320,7.0,31.0,85,0.00,,,0.00,237.000000,,2015-02-28 00:22:00,
2015-02-27 16:32:00,56.0,52.0,-100.00,NW,320,7.0,31.0,85,0.00,,,0.00,237.000000,,2015-02-28 00:32:00,
2015-02-27 16:42:00,56.0,52.0,-100.00,NW,320,7.0,31.0,85,0.00,,,0.00,237.000000,,2015-02-28 00:42:00,
2015-02-27 16:52:00,56.0,52.0,-100.00,NW,320,7.0,31.0,85,0.00,,,0.00,237.000000,,2015-02-28 00:52:00,